createdAt,value
2018-11-27T00:00:50.921Z,16.13
2018-11-27T00:03:22.498Z,15.87
2018-11-27T00:05:53.471Z,15.20
2018-11-27T00:08:23.346Z,16.57
2018-11-27T00:10:54.782Z,15.97
2018-11-27T00:13:26.677Z,15.17
2018-11-27T00:15:56.521Z,16.13
2018-11-27T00:18:27.974Z,15.23
2018-11-27T00:21:20.518Z,14.57
2018-11-27T00:23:54.741Z,15.20
2018-11-27T00:26:32.661Z,15.10
2018-11-27T00:29:06.312Z,14.93
2018-11-27T00:31:38.707Z,14.10
2018-11-27T00:34:07.042Z,15.03
2018-11-27T00:36:35.300Z,14.50
2018-11-27T00:39:04.747Z,15.10
2018-11-27T00:41:32.975Z,15.30
2018-11-27T00:44:01.208Z,14.17
2018-11-27T00:46:29.786Z,12.90
2018-11-27T00:48:58.034Z,13.23
2018-11-27T00:51:26.197Z,14.10
2018-11-27T00:53:54.459Z,13.00
2018-11-27T00:56:22.701Z,12.07
2018-11-27T00:58:50.963Z,12.83
2018-11-27T01:01:19.120Z,12.70
2018-11-27T01:03:47.390Z,12.17
2018-11-27T01:06:15.598Z,12.30
2018-11-27T01:08:43.856Z,11.70
2018-11-27T01:11:12.117Z,12.20
2018-11-27T01:13:40.335Z,12.93
2018-11-27T01:16:08.576Z,12.83
2018-11-27T01:18:36.849Z,12.33
2018-11-27T01:21:05.397Z,12.50
2018-11-27T01:23:33.637Z,12.27
2018-11-27T01:26:01.988Z,12.00
2018-11-27T01:28:30.257Z,12.03
2018-11-27T01:30:59.805Z,11.83
2018-11-27T01:33:28.129Z,11.47
2018-11-27T01:35:56.476Z,12.20
2018-11-27T01:38:24.751Z,12.53
2018-11-27T01:40:53.029Z,12.90
2018-11-27T01:43:21.317Z,13.13
2018-11-27T01:45:49.635Z,12.57
2018-11-27T01:48:17.873Z,12.77
2018-11-27T01:50:46.058Z,12.73
2018-11-27T01:53:14.267Z,12.33
2018-11-27T01:55:42.640Z,13.43
2018-11-27T01:58:10.873Z,13.23
2018-11-27T02:00:39.052Z,12.83
2018-11-27T02:03:07.229Z,12.97
2018-11-27T02:05:35.437Z,13.37
2018-11-27T02:08:03.670Z,12.87
2018-11-27T02:10:31.920Z,12.87
2018-11-27T02:13:01.400Z,13.47
2018-11-27T02:15:29.029Z,14.17
2018-11-27T02:17:57.279Z,14.50
2018-11-27T02:20:25.517Z,13.73
2018-11-27T02:22:54.114Z,15.33
2018-11-27T02:25:22.749Z,14.83
2018-11-27T02:27:51.414Z,14.93
2018-11-27T02:30:20.566Z,15.43
2018-11-27T02:32:48.742Z,15.10
2018-11-27T02:35:17.217Z,15.07
2018-11-27T02:37:45.560Z,15.60
2018-11-27T02:40:14.415Z,15.63
2018-11-27T02:42:42.652Z,16.40
2018-11-27T02:45:13.242Z,17.10
2018-11-27T02:47:41.640Z,16.17
2018-11-27T02:50:10.380Z,16.07
2018-11-27T02:52:38.596Z,16.43
2018-11-27T02:55:08.172Z,15.87
2018-11-27T02:57:36.590Z,16.33
2018-11-27T03:00:05.167Z,16.20
2018-11-27T03:02:33.454Z,16.10
2018-11-27T03:05:01.735Z,16.53
2018-11-27T03:07:30.024Z,16.87
2018-11-27T03:09:58.302Z,17.23
2018-11-27T03:12:26.571Z,16.87
2018-11-27T03:14:54.793Z,16.47
2018-11-27T03:17:22.959Z,16.43
2018-11-27T03:19:51.295Z,17.50
2018-11-27T03:22:19.862Z,16.03
2018-11-27T03:24:48.158Z,16.60
2018-11-27T03:27:16.438Z,17.30
2018-11-27T03:29:44.612Z,17.77
2018-11-27T03:32:12.792Z,16.70
2018-11-27T03:34:40.917Z,15.70
2018-11-27T03:37:09.674Z,17.47
2018-11-27T03:39:37.825Z,16.63
2018-11-27T03:42:06.121Z,16.33
2018-11-27T03:44:34.307Z,16.80
2018-11-27T03:47:02.513Z,17.20
2018-11-27T03:49:30.803Z,16.47
2018-11-27T03:51:59.063Z,17.20
2018-11-27T03:54:27.361Z,16.57
2018-11-27T03:56:55.583Z,16.43
2018-11-27T03:59:23.770Z,17.07
2018-11-27T04:01:51.948Z,17.10
2018-11-27T04:04:20.099Z,18.80
2018-11-27T04:06:48.262Z,17.00
2018-11-27T04:09:16.427Z,17.93
2018-11-27T04:11:44.592Z,19.50
2018-11-27T04:14:12.744Z,18.27
2018-11-27T04:16:40.965Z,17.30
2018-11-27T04:19:09.045Z,18.07
2018-11-27T04:21:37.142Z,18.23
2018-11-27T04:24:05.775Z,17.43
2018-11-27T04:26:33.781Z,17.80
2018-11-27T04:29:01.870Z,18.20
2018-11-27T04:31:30.374Z,18.57
2018-11-27T04:33:58.444Z,17.90
2018-11-27T04:36:26.653Z,18.63
2018-11-27T04:38:54.695Z,17.83
2018-11-27T04:41:22.749Z,18.57
2018-11-27T04:43:50.790Z,19.00
2018-11-27T04:46:18.868Z,19.67
2018-11-27T04:48:46.876Z,19.87
2018-11-27T04:51:15.167Z,19.13
2018-11-27T04:53:43.221Z,19.17
2018-11-27T04:56:11.270Z,19.90
2018-11-27T04:58:39.383Z,20.87
2018-11-27T05:01:07.493Z,20.87
2018-11-27T05:03:35.560Z,21.20
2018-11-27T05:06:03.625Z,20.97
2018-11-27T05:08:31.709Z,20.07
2018-11-27T05:11:05.521Z,20.67
2018-11-27T05:13:37.615Z,21.37
2018-11-27T05:16:09.939Z,22.80
2018-11-27T05:18:40.496Z,20.77
2018-11-27T05:21:15.183Z,21.77
2018-11-27T05:23:47.689Z,21.77
2018-11-27T05:26:21.965Z,22.40
2018-11-27T05:28:54.012Z,21.83
2018-11-27T05:31:25.437Z,22.53
2018-11-27T05:33:56.927Z,23.10
2018-11-27T05:36:27.780Z,22.60
2018-11-27T05:38:57.290Z,22.37
2018-11-27T05:41:41.376Z,23.00
2018-11-27T05:44:11.938Z,21.33
2018-11-27T05:46:44.453Z,22.27
2018-11-27T05:49:17.655Z,22.40
2018-11-27T05:51:51.055Z,21.90
2018-11-27T05:54:24.862Z,23.53
2018-11-27T05:56:57.157Z,21.83
2018-11-27T05:59:29.527Z,22.83
2018-11-27T06:02:00.849Z,22.70
2018-11-27T06:04:31.895Z,22.63
2018-11-27T06:07:04.232Z,22.27
2018-11-27T06:09:37.049Z,23.17
2018-11-27T06:12:10.607Z,24.40
2018-11-27T06:14:47.942Z,22.87
2018-11-27T06:17:21.470Z,22.37
2018-11-27T06:20:00.179Z,23.23
2018-11-27T06:25:20.671Z,21.03
2018-11-27T06:27:56.541Z,22.10
2018-11-27T06:30:35.568Z,23.10
2018-11-27T06:33:13.738Z,22.40
2018-11-27T06:35:47.854Z,22.87
2018-11-27T06:38:22.675Z,22.73
2018-11-27T06:40:57.451Z,23.37
2018-11-27T06:43:32.765Z,22.50
2018-11-27T06:46:08.555Z,23.23
2018-11-27T06:48:36.871Z,23.50
2018-11-27T06:51:04.948Z,23.53
2018-11-27T06:53:33.124Z,24.10
2018-11-27T06:56:01.167Z,24.73
2018-11-27T06:58:29.300Z,23.87
2018-11-27T07:00:57.351Z,24.47
2018-11-27T07:03:25.500Z,22.27
2018-11-27T07:05:53.582Z,23.13
2018-11-27T07:08:21.882Z,22.10
2018-11-27T07:10:49.976Z,21.77
2018-11-27T07:13:19.797Z,22.20
2018-11-27T07:15:50.251Z,23.97
2018-11-27T07:18:18.259Z,25.10
2018-11-27T07:20:46.274Z,24.67
2018-11-27T07:23:14.285Z,22.40
2018-11-27T07:25:42.274Z,22.27
2018-11-27T07:28:10.369Z,22.03
2018-11-27T07:30:39.192Z,21.67
2018-11-27T07:33:07.227Z,22.00
2018-11-27T07:35:35.594Z,21.87
2018-11-27T07:38:27.088Z,22.77
2018-11-27T07:41:14.459Z,21.43
2018-11-27T07:46:50.831Z,20.90
2018-11-27T07:49:24.528Z,21.37
2018-11-27T07:58:48.069Z,19.90
2018-11-27T08:01:16.136Z,21.23
2018-11-27T08:03:44.161Z,21.23
2018-11-27T08:06:12.160Z,20.40
2018-11-27T08:08:40.348Z,20.43
2018-11-27T08:11:08.402Z,20.93
2018-11-27T08:13:37.049Z,20.70
2018-11-27T08:16:05.619Z,20.87
2018-11-27T08:18:33.765Z,19.97
2018-11-27T08:21:02.889Z,24.50
2018-11-27T08:23:30.903Z,20.53
2018-11-27T08:25:59.237Z,20.00
2018-11-27T08:28:27.318Z,20.83
2018-11-27T08:30:55.330Z,19.97
2018-11-27T08:33:23.659Z,20.20
2018-11-27T08:35:51.665Z,20.07
2018-11-27T08:38:19.757Z,20.43
2018-11-27T08:40:47.799Z,19.60
2018-11-27T08:43:15.837Z,21.53
2018-11-27T08:45:43.884Z,19.57
2018-11-27T08:48:11.908Z,19.40
2018-11-27T08:50:39.947Z,19.50
2018-11-27T08:53:08.012Z,20.50
2018-11-27T08:55:39.709Z,20.23
2018-11-27T08:58:11.862Z,20.47
2018-11-27T09:00:39.884Z,21.17
2018-11-27T09:03:07.900Z,19.17
2018-11-27T09:05:36.145Z,21.13
2018-11-27T09:08:04.362Z,19.67
2018-11-27T09:10:32.477Z,20.53
2018-11-27T09:13:00.974Z,21.57
2018-11-27T09:15:28.889Z,20.93
2018-11-27T09:17:57.913Z,19.93
2018-11-27T09:20:27.059Z,20.43
2018-11-27T09:22:55.236Z,19.33
2018-11-27T09:25:23.276Z,20.17
2018-11-27T09:27:51.452Z,20.23
2018-11-27T09:30:24.107Z,20.30
2018-11-27T09:32:52.539Z,20.57
2018-11-27T09:35:20.650Z,19.87
2018-11-27T09:37:48.823Z,20.63
2018-11-27T09:40:17.889Z,20.60
2018-11-27T09:42:46.117Z,20.57
2018-11-27T09:45:19.522Z,19.93
2018-11-27T09:47:52.308Z,19.77
2018-11-27T09:50:20.341Z,20.63
2018-11-27T09:52:48.379Z,20.00
2018-11-27T09:55:25.667Z,20.53
2018-11-27T09:58:03.083Z,20.40
2018-11-27T10:00:31.972Z,19.70
2018-11-27T10:03:01.692Z,19.80
2018-11-27T10:05:29.749Z,19.87
2018-11-27T10:07:57.797Z,20.23
2018-11-27T10:10:26.318Z,19.90
2018-11-27T10:12:54.347Z,20.67
2018-11-27T10:15:24.900Z,19.63
2018-11-27T10:17:53.949Z,19.53
2018-11-27T10:20:22.713Z,22.70
2018-11-27T10:22:50.760Z,19.63
2018-11-27T10:25:18.780Z,20.57
2018-11-27T10:27:46.861Z,20.30
2018-11-27T10:30:16.422Z,19.37
2018-11-27T10:32:44.608Z,21.73
2018-11-27T10:35:13.877Z,19.93
2018-11-27T10:37:41.914Z,18.50
2018-11-27T10:40:10.135Z,19.60
2018-11-27T10:42:38.402Z,19.17
2018-11-27T10:45:08.433Z,20.80
2018-11-27T10:47:36.699Z,21.53
2018-11-27T10:50:06.386Z,17.53
2018-11-27T10:52:34.569Z,19.03
2018-11-27T10:55:02.831Z,17.07
2018-11-27T10:57:31.074Z,17.03
2018-11-27T10:59:59.416Z,18.60
2018-11-27T11:02:33.801Z,18.43
2018-11-27T11:05:02.615Z,18.47
2018-11-27T11:07:30.887Z,16.50
2018-11-27T11:09:59.103Z,16.47
2018-11-27T11:12:27.337Z,16.67
2018-11-27T11:15:09.309Z,19.43
2018-11-27T11:17:37.703Z,19.70
2018-11-27T11:20:06.321Z,18.73
2018-11-27T11:22:34.585Z,18.40
2018-11-27T11:25:02.837Z,18.27
2018-11-27T11:27:31.011Z,16.20
2018-11-27T11:29:59.438Z,15.43
2018-11-27T11:32:27.687Z,18.13
2018-11-27T11:34:55.942Z,18.77
2018-11-27T11:37:24.092Z,16.07
2018-11-27T11:39:52.316Z,15.70
2018-11-27T11:42:20.647Z,16.90
2018-11-27T11:44:48.891Z,16.87
2018-11-27T11:47:17.116Z,16.63
2018-11-27T11:49:45.403Z,18.77
2018-11-27T11:52:13.633Z,17.60
2018-11-27T11:54:41.900Z,17.07
2018-11-27T11:57:10.109Z,17.27
2018-11-27T11:59:38.330Z,16.27
2018-11-27T12:02:06.618Z,14.60
2018-11-27T12:04:34.954Z,15.47
2018-11-27T12:07:03.162Z,13.80
2018-11-27T12:09:31.611Z,14.67
2018-11-27T12:11:59.855Z,14.17
2018-11-27T12:14:28.090Z,16.27
2018-11-27T12:16:56.354Z,14.23
2018-11-27T12:19:24.723Z,14.43
2018-11-27T12:21:52.951Z,15.60
2018-11-27T12:24:21.147Z,15.23
2018-11-27T12:26:49.546Z,16.03
2018-11-27T12:29:18.009Z,15.60
2018-11-27T12:31:46.318Z,14.20
2018-11-27T12:34:14.642Z,15.03
2018-11-27T12:36:42.894Z,14.20
2018-11-27T12:39:11.112Z,14.53
2018-11-27T12:41:39.311Z,14.53
2018-11-27T12:44:07.558Z,15.00
2018-11-27T12:46:35.896Z,15.53
2018-11-27T12:49:04.251Z,15.37
2018-11-27T12:51:32.461Z,14.33
2018-11-27T12:54:00.765Z,14.50
2018-11-27T12:56:29.161Z,14.17
2018-11-27T12:58:57.698Z,13.40
2018-11-27T13:01:32.752Z,13.57
2018-11-27T13:04:01.018Z,13.40
2018-11-27T13:06:29.353Z,12.67
2018-11-27T13:08:57.669Z,12.90
2018-11-27T13:11:26.038Z,12.77
2018-11-27T13:13:55.305Z,12.67
2018-11-27T13:16:23.533Z,13.97
2018-11-27T13:18:51.799Z,14.73
2018-11-27T13:21:20.067Z,14.27
2018-11-27T13:23:48.241Z,15.13
2018-11-27T13:26:16.595Z,13.17
2018-11-27T13:28:44.921Z,13.93
2018-11-27T13:31:13.136Z,13.83
2018-11-27T13:33:44.872Z,12.40
2018-11-27T13:36:13.581Z,12.10
2018-11-27T13:38:41.839Z,12.23
2018-11-27T13:41:10.069Z,17.30
2018-11-27T13:43:38.244Z,17.40
2018-11-27T13:46:08.412Z,12.37
2018-11-27T13:48:36.848Z,13.73
2018-11-27T13:51:05.869Z,15.93
2018-11-27T13:53:34.298Z,14.23
2018-11-27T13:56:02.443Z,16.80
2018-11-27T13:58:30.668Z,12.47
2018-11-27T14:00:58.959Z,11.83
2018-11-27T14:03:27.234Z,13.00
2018-11-27T14:05:55.697Z,11.20
2018-11-27T14:08:24.021Z,10.80
2018-11-27T14:10:52.266Z,11.20
2018-11-27T14:13:20.593Z,11.70
2018-11-27T14:15:48.841Z,10.67
2018-11-27T14:18:17.202Z,12.07
2018-11-27T14:20:46.130Z,12.13
2018-11-27T14:23:14.078Z,12.27
2018-11-27T14:25:42.451Z,11.80
2018-11-27T14:28:10.814Z,12.07
2018-11-27T14:30:39.208Z,11.93
2018-11-27T14:33:07.546Z,12.00
2018-11-27T14:35:35.895Z,12.13
2018-11-27T14:38:04.839Z,12.40
2018-11-27T14:40:33.034Z,12.67
2018-11-27T14:43:02.486Z,12.83
2018-11-27T14:45:30.771Z,14.47
2018-11-27T14:47:59.250Z,13.33
2018-11-27T14:50:27.466Z,14.37
2018-11-27T14:52:55.718Z,14.73
2018-11-27T14:55:28.169Z,13.13
2018-11-27T14:57:56.448Z,14.37
2018-11-27T15:00:25.976Z,13.50
2018-11-27T15:02:54.341Z,12.90
2018-11-27T15:05:30.127Z,13.80
2018-11-27T15:07:58.507Z,14.93
2018-11-27T15:10:26.939Z,14.37
2018-11-27T15:12:55.266Z,13.67
2018-11-27T15:15:23.510Z,14.87
2018-11-27T15:17:51.805Z,15.07
2018-11-27T15:20:20.914Z,15.27
2018-11-27T15:22:50.130Z,15.80
2018-11-27T15:25:20.892Z,15.37
2018-11-27T15:27:50.182Z,15.47
2018-11-27T15:30:21.303Z,15.50
2018-11-27T15:32:49.878Z,15.13
2018-11-27T15:35:18.148Z,15.17
2018-11-27T15:37:46.340Z,15.00
2018-11-27T15:40:15.172Z,14.73
2018-11-27T15:42:43.666Z,14.97
2018-11-27T15:45:16.497Z,15.20
2018-11-27T15:47:44.701Z,15.17
2018-11-27T15:50:13.057Z,14.17
2018-11-27T15:52:41.279Z,16.37
2018-11-27T15:55:10.507Z,15.40
2018-11-27T15:57:38.999Z,17.03
2018-11-27T16:00:14.334Z,18.47
2018-11-27T16:02:42.678Z,18.30
2018-11-27T16:05:11.179Z,18.87
2018-11-27T16:07:39.424Z,19.10
2018-11-27T16:10:15.182Z,19.33
2018-11-27T16:12:43.571Z,19.37
2018-11-27T16:15:13.313Z,20.13
2018-11-27T16:17:41.695Z,19.50
2018-11-27T16:20:12.358Z,19.63
2018-11-27T16:22:40.949Z,20.97
2018-11-27T16:25:10.893Z,19.60
2018-11-27T16:27:41.289Z,20.07
2018-11-27T16:30:10.480Z,19.67
2018-11-27T16:32:38.685Z,19.30
2018-11-27T16:35:06.724Z,19.87
2018-11-27T16:37:34.716Z,20.73
2018-11-27T16:40:02.754Z,20.10
2018-11-27T16:42:31.193Z,20.87
2018-11-27T16:44:59.222Z,21.37
2018-11-27T16:47:27.201Z,24.23
2018-11-27T16:49:55.308Z,23.73
2018-11-27T16:52:23.326Z,22.00
2018-11-27T16:54:51.294Z,22.13
2018-11-27T16:57:19.285Z,22.70
2018-11-27T16:59:47.260Z,24.40
2018-11-27T17:02:15.269Z,24.63
2018-11-27T17:04:43.261Z,23.37
2018-11-27T17:07:11.251Z,22.10
2018-11-27T17:09:39.580Z,23.60
2018-11-27T17:12:07.581Z,22.43
2018-11-27T17:14:35.685Z,23.87
2018-11-27T17:17:03.705Z,23.40
2018-11-27T17:19:31.757Z,25.30
2018-11-27T17:21:59.716Z,25.60
2018-11-27T17:24:27.805Z,25.17
2018-11-27T17:26:55.822Z,27.30
2018-11-27T17:29:23.843Z,23.20
2018-11-27T17:31:51.835Z,23.17
2018-11-27T17:34:19.844Z,21.73
2018-11-27T17:36:47.828Z,21.33
2018-11-27T17:39:15.835Z,22.47
2018-11-27T17:41:43.820Z,20.77
2018-11-27T17:44:13.738Z,22.17
2018-11-27T17:46:41.828Z,24.23
2018-11-27T17:49:10.941Z,21.73
2018-11-27T17:51:38.981Z,22.80
2018-11-27T17:54:07.058Z,21.87
2018-11-27T17:56:35.061Z,22.10
2018-11-27T17:59:03.071Z,23.00
2018-11-27T18:01:31.063Z,21.13
2018-11-27T18:03:59.089Z,22.07
2018-11-27T18:06:27.076Z,25.10
2018-11-27T18:08:55.064Z,23.17
2018-11-27T18:11:23.069Z,23.70
2018-11-27T18:13:51.195Z,23.47
2018-11-27T18:16:19.256Z,25.97
2018-11-27T18:18:47.301Z,25.40
2018-11-27T18:21:16.533Z,27.40
2018-11-27T18:23:44.644Z,26.47
2018-11-27T18:26:12.661Z,26.13
2018-11-27T18:28:40.708Z,24.50
2018-11-27T18:31:08.828Z,22.67
2018-11-27T18:33:37.062Z,22.50
2018-11-27T18:36:05.159Z,21.83
2018-11-27T18:38:33.194Z,21.40
2018-11-27T18:41:01.406Z,22.33
2018-11-27T18:43:29.592Z,23.53
2018-11-27T18:45:58.094Z,24.40
2018-11-27T18:48:28.769Z,23.60
2018-11-27T18:50:56.949Z,24.03
2018-11-27T18:53:25.062Z,23.57
2018-11-27T18:55:53.554Z,23.20
2018-11-27T18:58:21.631Z,24.53
2018-11-27T19:00:49.664Z,23.80
2018-11-27T19:03:17.706Z,25.10
2018-11-27T19:05:45.772Z,23.00
2018-11-27T19:08:13.805Z,24.73
2018-11-27T19:10:41.867Z,24.17
2018-11-27T19:13:09.932Z,25.00
2018-11-27T19:15:41.711Z,25.47
2018-11-27T19:18:12.952Z,26.10
2018-11-27T19:20:41.124Z,24.57
2018-11-27T19:23:09.289Z,26.30
2018-11-27T19:25:37.469Z,27.50
2018-11-27T19:28:06.231Z,27.77
2018-11-27T19:30:34.901Z,26.47
2018-11-27T19:33:02.940Z,23.50
2018-11-27T19:35:31.114Z,25.43
2018-11-27T19:37:59.178Z,26.07
2018-11-27T19:40:27.272Z,29.23
2018-11-27T19:42:55.335Z,29.77
2018-11-27T19:45:24.464Z,28.50
2018-11-27T19:47:52.666Z,29.03
2018-11-27T19:50:20.710Z,29.13
2018-11-27T19:52:49.411Z,28.47
2018-11-27T19:55:17.886Z,29.90
2018-11-27T19:57:46.189Z,27.87
2018-11-27T20:00:18.350Z,27.70
2018-11-27T20:02:46.454Z,27.87
2018-11-27T20:05:15.221Z,24.97
2018-11-27T20:07:43.401Z,23.80
2018-11-27T20:10:12.006Z,23.57
2018-11-27T20:12:40.361Z,24.07
2018-11-27T20:15:12.211Z,25.03
2018-11-27T20:17:40.276Z,22.93
2018-11-27T20:20:09.088Z,25.00
2018-11-27T20:22:37.144Z,22.50
2018-11-27T20:25:05.953Z,25.37
2018-11-27T20:27:34.047Z,24.63
2018-11-27T20:30:02.662Z,23.67
2018-11-27T20:32:33.934Z,22.87
2018-11-27T20:34:59.004Z,25.17
2018-11-27T20:37:27.164Z,23.87
2018-11-27T20:39:55.345Z,21.67
2018-11-27T20:42:23.567Z,20.67
2018-11-27T20:44:51.693Z,23.17
2018-11-27T20:47:19.802Z,21.97
2018-11-27T20:49:48.074Z,20.27
2018-11-27T20:52:16.280Z,21.20
2018-11-27T20:54:44.599Z,24.87
2018-11-27T20:57:12.888Z,22.83
2018-11-27T20:59:41.105Z,21.60
2018-11-27T21:02:09.463Z,20.70
2018-11-27T21:04:38.006Z,18.77
2018-11-27T21:07:06.642Z,19.97
2018-11-27T21:09:34.967Z,20.73
2018-11-27T21:12:03.292Z,21.80
2018-11-27T21:14:31.565Z,20.23
2018-11-27T21:16:59.862Z,19.57
2018-11-27T21:19:28.456Z,19.30
2018-11-27T21:21:56.715Z,19.93
2018-11-27T21:24:25.032Z,19.70
2018-11-27T21:26:53.302Z,19.87
2018-11-27T21:29:21.597Z,19.07
2018-11-27T21:31:49.813Z,19.77
2018-11-27T21:34:18.456Z,20.43
2018-11-27T21:36:46.731Z,20.37
2018-11-27T21:39:15.119Z,20.93
2018-11-27T21:41:43.445Z,20.27
2018-11-27T21:44:11.814Z,20.30
2018-11-27T21:46:39.969Z,19.80
2018-11-27T21:49:08.311Z,18.77
2018-11-27T21:51:36.594Z,19.93
2018-11-27T21:54:04.836Z,19.90
2018-11-27T21:56:33.342Z,18.87
2018-11-27T21:59:01.586Z,19.37
2018-11-27T22:01:29.962Z,19.00
2018-11-27T22:03:58.179Z,17.63
2018-11-27T22:06:26.447Z,18.67
2018-11-27T22:08:54.847Z,18.13
2018-11-27T22:11:23.037Z,18.10
2018-11-27T22:13:51.359Z,18.53
2018-11-27T22:16:19.515Z,19.87
2018-11-27T22:18:47.837Z,18.93
2018-11-27T22:21:16.129Z,19.57
2018-11-27T22:23:44.614Z,19.87
2018-11-27T22:26:12.887Z,19.17
2018-11-27T22:28:41.069Z,18.20
2018-11-27T22:31:09.284Z,19.97
2018-11-27T22:33:37.539Z,19.33
2018-11-27T22:36:05.762Z,20.30
2018-11-27T22:38:34.267Z,19.27
2018-11-27T22:41:03.424Z,19.73
2018-11-27T22:43:31.462Z,21.07
2018-11-27T22:45:59.558Z,19.33
2018-11-27T22:48:35.462Z,20.10
2018-11-27T22:51:03.599Z,19.40
2018-11-27T22:53:31.659Z,18.13
2018-11-27T22:56:00.325Z,18.30
2018-11-27T22:58:27.795Z,17.37
2018-11-27T23:00:55.936Z,19.57
2018-11-27T23:03:27.525Z,24.70
2018-11-27T23:05:55.619Z,30.00
2018-11-27T23:08:23.703Z,17.93
2018-11-27T23:10:51.763Z,17.87
2018-11-27T23:13:19.788Z,17.43
2018-11-27T23:15:48.183Z,17.70
2018-11-27T23:18:18.322Z,17.43
2018-11-27T23:20:46.363Z,18.43
2018-11-27T23:23:22.230Z,18.23
2018-11-27T23:25:50.222Z,18.43
2018-11-27T23:28:18.331Z,17.90
2018-11-27T23:30:46.329Z,17.20
2018-11-27T23:33:14.385Z,18.40
2018-11-27T23:35:42.444Z,17.50
2018-11-27T23:38:10.501Z,15.93
2018-11-27T23:40:38.620Z,16.43
2018-11-27T23:43:06.741Z,16.40
2018-11-27T23:45:34.871Z,16.07
2018-11-27T23:48:02.926Z,16.67
2018-11-27T23:50:31.061Z,19.30
2018-11-27T23:53:02.801Z,19.53
2018-11-27T23:55:30.855Z,20.07
2018-11-27T23:57:58.909Z,20.67
